Startpagina
METAR-TAF:

METAR-TAF

Vliegvelden :

Koror, Babelthuap Island, Palau

Roman Tmetuchl International Airport

breedte: 07-22N, lengte: 134-32E, hoogte: 54 m

Actueel weer

Dit bericht is 36 minuten geleden gemaakt, om 15:54 UTC
Wind 4 kt uit het zuidwesten
Temperatuur 24°C
Vochtigheid 89%
Druk 1010 hPa
Zicht: 20.9 km
Gebroken wolken op 1500 ft, Cumulonimbus.
Geheel bewolkt op 28000 ft

METAR: PTRO 251554Z 22004KT 13SM BKN015CB OVC280 24/22 A2982 RMK CB ALQDS

Tijdstip: 01:30 (16:30 UTC)

Verwachting

Dit bericht is 4 uur en het 58 minuten geleden gemaakt, om 11:32 UTC
Verwachting geldig van 25 om 12 UTC tot 26 om 12 UTC
Wind 11 kt uit het zuidwesten
Zicht: 10 km
Verspreide wolken op 1600 ft
Gebroken wolken op 14000 ft
buien in de omgeving
Tijdelijke
van 25 om 12 UTC tot 25 om 15 UTC
Wind 16 kt uit het zuidwesten
Gebroken wolken op 1600 ft
Geheel bewolkt op 10000 ft

TAF: PTRO 251132Z 2512/2612 22011KT P6SM VCSH SCT016 BKN140 TEMPO 2512/2515 23016KT BKN016 OVC100

Waarnemingen en weersverwachtingen van meer dan 4000 vliegvelden (METAR en TAF).

De beschikbare stations zijn de gele en rode punten op de kaart.

Ga met uw muis naar het station om de naam te zien.

Klik dan om waarnemingen en weersverwachtingen te zien.

kaart wijzigen: klik op de groene knoppen met een zwart kruis om in te zoomen, op de groene knop met een streepje om uit te zoomen of op de groene pijlen voor aangrenzende kaarten.


METAR-TAF: